Time;durP1;ratioP1;P1;durP2;ratioP2;P2;SDS_P1;SDS_P2;PMS_P1;PMS_P2;Temp;Humidity;BMP_temperature;BMP_pressure;BME280_temperature;BME280_humidity;BME280_pressure;Samples;Min_cycle;Max_cycle;Signal;HPM_P1;HPM_P2
2023/12/08 00:00:20;;;;;;;66.60;29.10;;;;;;;4.07;54.68;100846.85;108305;1254;60332;-88
2023/12/08 00:02:47;;;;;;;53.60;27.20;;;;;;;4.14;54.40;100844.44;108455;1254;72236;-88
2023/12/08 00:05:14;;;;;;;59.50;29.20;;;;;;;4.32;53.98;100843.20;108988;1254;69072;-87
2023/12/08 00:07:41;;;;;;;63.10;29.80;;;;;;;4.51;53.31;100843.03;108987;1254;71068;-88
2023/12/08 00:10:09;;;;;;;58.30;26.60;;;;;;;4.51;53.29;100845.82;109401;1253;61802;-89
2023/12/08 00:12:37;;;;;;;57.90;28.20;;;;;;;4.36;53.46;100839.56;109111;1254;60428;-90
2023/12/08 00:15:05;;;;;;;54.20;27.70;;;;;;;4.34;53.69;100839.91;108181;1259;71821;-88
2023/12/08 00:17:32;;;;;;;58.40;28.90;;;;;;;4.39;53.39;100839.56;108162;1257;70162;-89
2023/12/08 00:19:59;;;;;;;54.70;26.70;;;;;;;4.31;53.59;100836.61;108031;1259;71388;-89
2023/12/08 00:22:29;;;;;;;54.60;27.90;;;;;;;4.25;53.69;100837.48;108133;1253;60793;-89
2023/12/08 00:24:59;;;;;;;184.10;69.20;;;;;;;4.21;53.73;100830.36;108155;1254;60411;-89
2023/12/08 00:27:25;;;;;;;111.50;38.00;;;;;;;4.19;53.67;100830.52;108085;1255;72404;-88
2023/12/08 00:29:52;;;;;;;72.20;31.20;;;;;;;4.25;53.54;100828.09;108191;1253;69437;-89
2023/12/08 00:32:20;;;;;;;71.10;29.20;;;;;;;4.26;53.54;100829.48;108207;1259;72595;-88
2023/12/08 00:34:47;;;;;;;60.70;27.00;;;;;;;4.22;53.71;100829.14;108177;1254;60704;-87
2023/12/08 00:37:14;;;;;;;57.30;27.10;;;;;;;4.25;53.44;100825.84;108253;1254;60418;-87
2023/12/08 00:39:40;;;;;;;57.80;26.70;;;;;;;4.34;53.35;100829.48;108254;1254;72941;-89
2023/12/08 00:42:07;;;;;;;53.00;25.00;;;;;;;4.26;53.33;100824.09;108497;1254;70406;-86
2023/12/08 00:44:34;;;;;;;58.00;27.90;;;;;;;4.33;53.35;100825.31;108431;1254;71914;-86
2023/12/08 00:47:01;;;;;;;61.80;27.80;;;;;;;4.27;53.32;100821.32;108462;1254;60750;-87
2023/12/08 00:49:28;;;;;;;49.40;23.10;;;;;;;4.35;53.16;100817.14;109272;1253;60186;-87
2023/12/08 00:51:55;;;;;;;55.70;25.60;;;;;;;4.45;52.94;100811.73;109274;1254;72428;-88
2023/12/08 00:54:22;;;;;;;60.60;26.40;;;;;;;4.42;52.98;100810.52;109333;1254;69275;-88
2023/12/08 00:56:49;;;;;;;51.10;25.50;;;;;;;4.43;52.98;100809.30;108878;1254;71155;-87
2023/12/08 00:59:16;;;;;;;54.90;26.50;;;;;;;4.44;52.97;100806.35;108679;1257;60482;-88
2023/12/08 01:01:42;;;;;;;52.60;23.40;;;;;;;4.37;53.16;100805.48;108480;1254;60356;-86
2023/12/08 01:04:10;;;;;;;56.40;26.70;;;;;;;4.40;53.01;100802.88;108246;1258;73687;-87
2023/12/08 01:06:37;;;;;;;81.20;35.30;;;;;;;4.47;52.77;100800.79;108238;1255;70196;-86
2023/12/08 01:09:04;;;;;;;95.60;42.00;;;;;;;4.53;52.67;100797.98;108162;1258;72615;-87
2023/12/08 01:11:32;;;;;;;68.80;29.10;;;;;;;4.47;52.84;100798.70;108077;1259;61165;-87
2023/12/08 01:13:59;;;;;;;47.50;22.60;;;;;;;4.50;52.84;100792.61;108165;1254;60279;-86
2023/12/08 01:16:25;;;;;;;48.30;23.40;;;;;;;4.48;52.78;100790.17;108161;1254;71371;-89
2023/12/08 01:18:54;;;;;;;44.30;23.60;;;;;;;4.45;52.90;100793.66;108118;1257;70063;-89
2023/12/08 01:21:24;;;;;;;41.50;21.40;;;;;;;4.53;52.79;100788.95;108112;1259;71451;-89
2023/12/08 01:23:51;;;;;;;46.20;22.90;;;;;;;4.64;52.60;100789.27;108114;1254;60651;-88
2023/12/08 01:26:17;;;;;;;42.00;22.00;;;;;;;4.63;52.54;100784.41;108156;1255;60318;-87
2023/12/08 01:28:44;;;;;;;44.60;22.90;;;;;;;4.66;52.48;100787.36;108119;1254;73543;-88
2023/12/08 01:31:12;;;;;;;45.80;22.50;;;;;;;4.69;52.38;100788.56;108188;1254;70551;-89
2023/12/08 01:33:38;;;;;;;50.90;22.70;;;;;;;4.72;52.28;100789.95;108195;1255;72421;-88
2023/12/08 01:36:07;;;;;;;45.80;22.90;;;;;;;4.63;52.53;100785.63;108557;1253;61979;-89
2023/12/08 01:38:54;;;;;;;43.80;22.40;;;;;;;4.77;52.28;100782.29;109069;1254;59652;-87
2023/12/08 01:41:21;;;;;;;45.90;22.30;;;;;;;4.81;52.37;100779.66;108404;1260;73910;-87
2023/12/08 01:43:51;;;;;;;47.70;23.90;;;;;;;4.81;52.07;100778.96;108276;1254;70454;-88
2023/12/08 01:46:19;;;;;;;40.60;21.80;;;;;;;4.82;52.17;100774.79;108198;1260;72613;-88
2023/12/08 01:48:46;;;;;;;47.30;24.10;;;;;;;4.69;52.44;100773.96;108038;1254;60376;-85
2023/12/08 01:51:13;;;;;;;48.20;24.80;;;;;;;4.68;52.70;100776.05;108073;1254;60430;-87
2023/12/08 01:53:40;;;;;;;54.50;27.00;;;;;;;4.79;52.32;100776.71;108048;1255;72595;-89
2023/12/08 01:56:08;;;;;;;52.20;25.10;;;;;;;4.85;52.14;100772.16;108117;1254;70267;-89
2023/12/08 01:58:38;;;;;;;44.70;22.80;;;;;;;4.82;52.18;100772.17;108142;1254;71341;-89
2023/12/08 02:01:05;;;;;;;38.20;20.00;;;;;;;4.83;52.45;100773.56;108120;1254;60970;-87
2023/12/08 02:03:35;;;;;;;46.00;23.00;;;;;;;4.87;52.20;100777.90;108164;1253;60364;-88
2023/12/08 02:06:01;;;;;;;42.30;21.00;;;;;;;4.87;52.32;100777.04;108139;1254;72867;-86
2023/12/08 02:08:29;;;;;;;43.00;21.10;;;;;;;4.99;52.17;100776.99;108285;1254;70336;-88
2023/12/08 02:10:55;;;;;;;44.70;21.10;;;;;;;4.99;51.98;100775.08;108771;1254;71314;-88
2023/12/08 02:13:25;;;;;;;37.40;19.00;;;;;;;4.98;52.00;100778.55;108891;1254;60598;-88
2023/12/08 02:15:57;;;;;;;39.20;20.30;;;;;;;5.06;52.00;100776.09;108447;1254;59238;-88
2023/12/08 02:18:24;;;;;;;40.20;19.20;;;;;;;5.08;51.88;100776.77;107952;1254;73974;-89
2023/12/08 02:20:52;;;;;;;39.20;20.70;;;;;;;5.06;51.88;100772.96;108153;1258;70247;-88
2023/12/08 02:23:19;;;;;;;34.00;18.80;;;;;;;5.05;51.94;100774.54;108060;1254;71219;-89
2023/12/08 02:25:46;;;;;;;36.40;18.70;;;;;;;5.06;52.00;100776.08;108161;1254;60738;-88
2023/12/08 02:28:13;;;;;;;38.40;19.80;;;;;;;5.04;51.91;100776.97;108306;1254;59125;-86
2023/12/08 02:30:39;;;;;;;35.70;18.70;;;;;;;5.10;51.81;100776.25;108289;1258;73049;-89
2023/12/08 02:33:12;;;;;;;34.90;19.30;;;;;;;5.03;51.91;100776.27;108286;1254;69298;-88
2023/12/08 02:35:41;;;;;;;38.30;19.20;;;;;;;5.07;52.00;100776.27;108084;1254;72658;-89
2023/12/08 02:38:09;;;;;;;31.40;18.00;;;;;;;5.00;52.20;100780.13;108114;1254;61887;-88
2023/12/08 02:40:36;;;;;;;38.70;18.60;;;;;;;4.99;52.11;100779.24;108068;1254;60169;-88
2023/12/08 02:43:03;;;;;;;34.60;18.40;;;;;;;5.01;52.16;100779.59;108237;1254;74127;-87
2023/12/08 02:45:30;;;;;;;32.30;17.20;;;;;;;5.06;51.97;100777.31;108200;1260;70345;-90
2023/12/08 02:47:57;;;;;;;33.50;17.60;;;;;;;5.07;52.11;100776.61;108257;1254;71562;-89
2023/12/08 02:50:24;;;;;;;28.90;16.10;;;;;;;5.07;52.04;100779.91;108347;1254;60426;-89
2023/12/08 02:52:51;;;;;;;34.90;18.40;;;;;;;5.08;51.93;100776.60;108303;1254;60176;-90
2023/12/08 02:55:21;;;;;;;;;;;;;;;5.07;52.22;100781.84;108345;1254;73825;-89
2023/12/08 02:57:50;;;;;;;36.90;18.50;;;;;;;5.02;52.17;100783.42;108254;1255;70114;-89
2023/12/08 03:00:17;;;;;;;33.00;18.60;;;;;;;4.99;52.07;100786.05;108227;1254;72691;-88
2023/12/08 03:02:45;;;;;;;31.60;17.30;;;;;;;4.94;52.47;100786.23;109089;1254;60710;-89
2023/12/08 03:05:12;;;;;;;33.80;18.10;;;;;;;5.05;52.12;100786.89;109158;1254;60292;-88
2023/12/08 03:07:39;;;;;;;36.40;17.70;;;;;;;5.10;51.77;100785.83;109374;1253;71769;-88
2023/12/08 03:10:06;;;;;;;30.30;15.60;;;;;;;5.08;51.82;100783.91;109340;1254;69019;-87
2023/12/08 03:12:33;;;;;;;29.70;16.90;;;;;;;5.12;51.96;100784.26;109330;1253;71203;-88
2023/12/08 03:15:00;;;;;;;31.00;15.90;;;;;;;5.17;51.78;100787.52;109366;1254;60716;-88
2023/12/08 03:17:29;;;;;;;29.80;16.30;;;;;;;5.27;51.70;100787.15;109390;1254;58745;-87
2023/12/08 03:19:57;;;;;;;35.70;17.60;;;;;;;5.29;51.58;100786.97;108838;1253;72666;-89
2023/12/08 03:22:24;;;;;;;29.60;16.20;;;;;;;5.20;51.97;100787.88;108318;1253;69230;-87
2023/12/08 03:24:51;;;;;;;32.10;16.10;;;;;;;5.15;52.00;100789.80;108160;1254;71204;-89
2023/12/08 03:27:18;;;;;;;29.00;15.60;;;;;;;5.19;51.75;100784.73;108964;1257;60719;-88
2023/12/08 03:29:45;;;;;;;31.80;17.50;;;;;;;5.12;51.86;100789.83;109291;1254;58851;-89
2023/12/08 03:32:12;;;;;;;32.50;15.60;;;;;;;5.16;51.79;100790.15;109204;1254;72367;-88
2023/12/08 03:34:39;;;;;;;31.60;15.40;;;;;;;5.10;51.96;100792.27;109288;1254;69078;-87
2023/12/08 03:37:10;;;;;;;28.10;16.20;;;;;;;5.34;51.60;100787.46;109209;1253;71299;-87
2023/12/08 03:39:37;;;;;;;33.30;16.10;;;;;;;5.13;51.93;100787.72;109222;1254;62014;-90
2023/12/08 03:46:30;;;;;;;28.00;14.90;;;;;;;5.29;51.74;100786.27;108441;1253;72618;-88
2023/12/08 03:48:57;;;;;;;33.60;18.30;;;;;;;5.24;51.65;100788.20;108763;1254;68821;-90
2023/12/08 03:51:24;;;;;;;30.40;16.70;;;;;;;5.31;51.65;100785.04;109305;1254;70262;-87
2023/12/08 03:53:52;;;;;;;33.90;16.60;;;;;;;5.44;51.56;100780.79;109382;1253;59667;-88
2023/12/08 03:56:19;;;;;;;37.00;17.50;;;;;;;5.55;50.78;100779.51;109358;1253;58840;-88
2023/12/08 03:58:46;;;;;;;36.60;17.40;;;;;;;5.50;51.20;100779.02;108965;1256;72810;-88
2023/12/08 04:01:17;;;;;;;31.80;16.00;;;;;;;5.32;51.58;100779.98;108565;1254;67758;-89
2023/12/08 04:03:43;;;;;;;;;;;;;;;5.35;51.59;100772.14;108817;1252;71602;-88
2023/12/08 04:06:12;;;;;;;28.60;14.70;;;;;;;5.35;51.39;100769.88;109088;1256;60683;-88
2023/12/08 04:08:40;;;;;;;32.50;15.70;;;;;;;5.42;51.13;100770.35;109099;1254;60216;-89
2023/12/08 04:11:07;;;;;;;26.80;14.20;;;;;;;5.40;51.33;100767.75;109358;1254;71834;-88
2023/12/08 04:13:34;;;;;;;31.80;15.70;;;;;;;5.50;51.03;100765.77;109474;1253;69065;-87
2023/12/08 04:16:02;;;;;;;25.90;14.40;;;;;;;5.41;51.23;100766.52;108765;1257;71181;-88
2023/12/08 04:18:29;;;;;;;29.00;15.40;;;;;;;5.38;51.47;100769.85;108326;1253;60850;-88
2023/12/08 04:21:21;;;;;;;28.50;15.50;;;;;;;5.13;51.81;100771.36;108352;1253;60420;-89
2023/12/08 04:23:52;;;;;;;29.00;15.20;;;;;;;5.12;51.96;100772.59;108266;1254;72516;-88
2023/12/08 04:26:24;;;;;;;27.60;14.50;;;;;;;5.20;51.74;100776.89;108309;1254;68221;-88
2023/12/08 04:28:54;;;;;;;29.50;15.00;;;;;;;5.19;51.60;100777.27;108247;1254;72667;-87
2023/12/08 04:31:21;;;;;;;32.30;14.90;;;;;;;5.24;51.66;100778.63;108343;1254;60437;-88
2023/12/08 04:33:48;;;;;;;30.60;15.70;;;;;;;5.13;51.79;100782.85;108220;1253;60258;-88
2023/12/08 04:36:15;;;;;;;27.00;14.90;;;;;;;5.20;51.74;100782.65;108167;1254;72827;-89
2023/12/08 04:38:42;;;;;;;26.90;14.00;;;;;;;5.25;51.67;100783.14;108316;1253;70245;-89
2023/12/08 04:41:09;;;;;;;27.40;14.10;;;;;;;5.17;51.88;100785.09;108239;1254;72384;-89
2023/12/08 04:43:37;;;;;;;30.20;14.30;;;;;;;5.18;51.77;100780.73;108268;1253;62203;-89
2023/12/08 04:46:04;;;;;;;26.70;13.20;;;;;;;5.14;51.70;100780.05;108305;1254;59134;-89
2023/12/08 04:48:31;;;;;;;28.50;14.10;;;;;;;5.17;51.84;100779.02;108298;1254;73857;-89
2023/12/08 04:50:59;;;;;;;25.50;13.80;;;;;;;5.14;51.81;100778.50;108683;1254;69203;-88
2023/12/08 04:53:26;;;;;;;26.10;14.00;;;;;;;5.25;51.67;100777.75;108437;1254;71163;-89
2023/12/08 04:55:53;;;;;;;27.20;14.90;;;;;;;5.25;51.43;100782.11;108265;1254;61652;-89
2023/12/08 04:58:21;;;;;;;31.40;14.50;;;;;;;5.19;51.60;100784.73;108268;1253;60408;-88
2023/12/08 05:00:50;;;;;;;29.00;14.60;;;;;;;5.30;51.46;100782.60;108259;1254;72412;-90
2023/12/08 05:03:19;;;;;;;25.40;13.40;;;;;;;5.35;51.26;100784.67;108824;1253;70172;-90
2023/12/08 05:05:50;;;;;;;26.20;13.70;;;;;;;5.37;51.22;100787.09;108221;1254;72341;-90
2023/12/08 05:08:18;;;;;;;28.50;14.80;;;;;;;5.41;51.12;100779.94;108237;1254;61990;-88
2023/12/08 05:10:45;;;;;;;26.80;13.70;;;;;;;5.41;51.17;100784.11;108326;1252;60370;-87
2023/12/08 05:13:13;;;;;;;25.50;14.30;;;;;;;5.36;51.25;100784.48;108390;1254;72472;-89
2023/12/08 05:15:39;;;;;;;26.50;13.60;;;;;;;5.37;51.27;100777.86;108936;1253;70222;-89
2023/12/08 05:18:06;;;;;;;27.80;14.30;;;;;;;5.35;51.15;100780.32;108773;1259;71187;-88
2023/12/08 05:20:33;;;;;;;26.80;13.90;;;;;;;5.28;51.52;100778.27;108304;1252;60469;-88
2023/12/08 05:23:04;;;;;;;;;;;;;;;5.30;51.29;100777.38;109210;1254;59045;-88
2023/12/08 05:25:31;;;;;;;26.80;14.60;;;;;;;5.26;51.54;100771.84;109292;1255;72382;-86
2023/12/08 05:27:58;;;;;;;27.90;14.50;;;;;;;5.36;51.08;100769.16;109374;1254;68795;-87
2023/12/08 05:30:27;;;;;;;25.50;13.60;;;;;;;5.15;51.58;100778.13;109123;1253;71347;-89
2023/12/08 05:33:15;;;;;;;27.60;15.00;;;;;;;5.12;51.50;100781.98;108710;1254;60559;-90
2023/12/08 05:35:45;;;;;;;26.90;13.80;;;;;;;5.16;51.53;100784.05;108369;1254;59122;-88
2023/12/08 05:38:12;;;;;;;26.00;13.40;;;;;;;5.24;51.45;100788.38;108357;1254;74920;-89
2023/12/08 05:40:39;;;;;;;28.60;13.20;;;;;;;5.41;51.07;100790.04;108315;1254;67990;-88
2023/12/08 05:43:06;;;;;;;22.80;12.40;;;;;;;5.43;51.16;100790.20;108276;1253;73276;-89
2023/12/08 05:45:33;;;;;;;24.60;12.90;;;;;;;5.50;50.70;100787.38;108331;1254;61672;-88
2023/12/08 05:48:00;;;;;;;27.30;13.50;;;;;;;5.37;51.17;100789.02;108374;1254;59951;-87
2023/12/08 05:50:28;;;;;;;26.30;13.10;;;;;;;5.32;51.18;100789.56;108725;1254;73786;-88
2023/12/08 05:53:13;;;;;;;26.80;13.90;;;;;;;5.31;51.17;100790.44;108727;1253;69274;-85
2023/12/08 05:55:43;;;;;;;29.70;14.10;;;;;;;5.39;51.11;100787.96;108730;1253;73679;-87
2023/12/08 05:58:09;;;;;;;36.70;18.00;;;;;;;5.15;51.51;100786.33;108696;1252;61801;-86
2023/12/08 06:00:36;;;;;;;28.80;14.40;;;;;;;5.21;51.42;100786.81;108685;1253;60779;-87
2023/12/08 06:03:03;;;;;;;29.10;13.90;;;;;;;4.99;51.82;100785.86;108883;1254;72577;-88
2023/12/08 06:05:30;;;;;;;34.30;17.60;;;;;;;5.13;51.52;100780.93;108572;1253;69898;-89
2023/12/08 06:07:58;;;;;;;35.30;19.00;;;;;;;5.10;51.61;100785.46;108486;1254;73254;-89
2023/12/08 06:10:25;;;;;;;28.90;17.10;;;;;;;5.20;51.48;100789.61;108643;1253;60478;-88
2023/12/08 06:12:52;;;;;;;41.50;21.10;;;;;;;5.35;51.16;100789.20;108601;1254;60322;-86
2023/12/08 06:15:19;;;;;;;42.30;23.50;;;;;;;5.47;51.14;100790.18;108759;1254;73638;-87
2023/12/08 06:17:48;;;;;;;69.20;37.50;;;;;;;5.43;51.08;100789.33;108886;1253;69002;-87
2023/12/08 06:20:15;;;;;;;85.40;35.30;;;;;;;5.40;51.13;100793.52;108835;1253;70773;-87
2023/12/08 06:22:43;;;;;;;60.50;27.60;;;;;;;5.33;51.22;100798.09;108290;1253;199917;-88
2023/12/08 06:27:13;;;;;;;26.90;14.30;;;;;;;2.67;58.96;100808.88;105026;1291;601461;-88
2023/12/08 06:29:47;;;;;;;25.90;13.50;;;;;;;3.94;55.44;100805.48;107310;1265;61009;-89
2023/12/08 06:32:20;;;;;;;28.60;14.60;;;;;;;4.26;54.39;100802.36;107729;1259;59412;-89
2023/12/08 06:35:00;;;;;;;25.10;13.80;;;;;;;4.23;54.30;100804.63;107874;1259;72132;-89
2023/12/08 06:37:28;;;;;;;277.90;106.50;;;;;;;4.23;54.42;100807.40;107865;1259;69105;-90
2023/12/08 06:39:56;;;;;;;96.60;36.30;;;;;;;4.39;54.15;100810.35;107557;1260;100722;-89
2023/12/08 06:42:27;;;;;;;;;;;;;;;4.36;54.12;100808.45;107724;1259;61955;-89
2023/12/08 06:44:54;;;;;;;42.10;19.50;;;;;;;4.63;53.58;100803.71;107830;1259;59770;-88
2023/12/08 06:47:22;;;;;;;30.00;15.20;;;;;;;4.79;52.96;100798.11;107673;1259;69862;-90
2023/12/08 06:49:51;;;;;;;36.30;14.60;;;;;;;4.81;52.84;100794.45;107812;1257;69265;-90
2023/12/08 06:52:19;;;;;;;31.80;15.40;;;;;;;4.93;52.76;100793.90;107827;1257;71384;-90
2023/12/08 06:54:48;;;;;;;30.70;14.50;;;;;;;4.93;52.57;100795.45;107640;1258;60492;-86
2023/12/08 06:57:17;;;;;;;25.10;13.80;;;;;;;4.80;52.97;100797.75;107767;1256;59564;-88
2023/12/08 06:59:45;;;;;;;47.30;22.20;;;;;;;5.08;52.29;100797.15;107688;1257;72779;-86
2023/12/08 07:02:14;;;;;;;36.50;19.90;;;;;;;5.06;52.18;100795.75;107947;1259;70860;-90
2023/12/08 07:04:49;;;;;;;74.90;27.90;;;;;;;5.00;52.55;100793.17;107791;1257;71557;-89
2023/12/08 07:07:27;;;;;;;36.20;18.10;;;;;;;4.95;52.46;100794.05;108679;1254;60463;31
2023/12/08 07:10:15;;;;;;;37.30;16.30;;;;;;;5.07;52.30;100791.40;108048;1258;59108;-87
2023/12/08 07:12:44;;;;;;;35.10;17.10;;;;;;;4.99;52.46;100796.30;108751;1260;70549;-89
2023/12/08 07:15:18;;;;;;;34.90;17.10;;;;;;;4.99;52.48;100796.66;108730;1260;68827;-89
2023/12/08 07:17:45;;;;;;;29.00;14.90;;;;;;;4.99;52.45;100793.70;108348;1254;71704;-89
2023/12/08 07:20:13;;;;;;;33.50;15.50;;;;;;;4.95;52.44;100793.36;108090;1254;62280;-89
2023/12/08 07:22:41;;;;;;;36.60;16.80;;;;;;;5.09;52.19;100790.70;108089;1256;62050;-88
2023/12/08 07:25:11;;;;;;;36.60;17.10;;;;;;;5.21;51.95;100786.65;108100;1253;72713;-90
2023/12/08 07:27:39;;;;;;;48.50;25.00;;;;;;;5.30;51.73;100788.70;108139;1253;67708;-88
2023/12/08 07:30:08;;;;;;;83.10;30.90;;;;;;;5.37;51.73;100788.14;108090;1253;72456;-89
2023/12/08 07:32:36;;;;;;;50.80;19.80;;;;;;;5.39;51.63;100791.27;108094;1254;61132;-89
2023/12/08 07:35:05;;;;;;;41.60;17.40;;;;;;;5.38;51.57;100792.48;108058;1254;60041;-88
2023/12/08 07:37:38;;;;;;;32.40;15.30;;;;;;;5.41;51.57;100788.29;107889;1254;73066;-90
2023/12/08 07:40:07;;;;;;;31.80;15.50;;;;;;;5.48;51.79;100788.42;108128;1254;70510;-88
2023/12/08 07:42:36;;;;;;;33.50;16.30;;;;;;;5.55;51.44;100785.60;108001;1254;72862;-90
2023/12/08 07:45:08;;;;;;;32.20;14.60;;;;;;;5.53;51.31;100787.88;108224;1257;59500;-90
2023/12/08 07:47:38;;;;;;;29.10;15.70;;;;;;;5.66;51.01;100786.92;108127;1257;60255;-90
2023/12/08 07:50:06;;;;;;;28.90;14.50;;;;;;;5.70;50.78;100788.13;108264;1256;71500;-89
2023/12/08 07:52:34;;;;;;;41.10;22.10;;;;;;;5.70;50.71;100790.73;108022;1257;69025;-90
2023/12/08 07:55:03;;;;;;;165.20;63.60;;;;;;;5.69;50.97;100784.30;107964;1257;71410;-89
2023/12/08 07:57:30;;;;;;;37.60;18.00;;;;;;;5.79;50.69;100784.76;108099;1256;60894;-89
2023/12/08 07:59:58;;;;;;;33.90;17.80;;;;;;;5.80;50.60;100783.70;108097;1256;59391;-86
2023/12/08 08:02:28;;;;;;;30.70;16.60;;;;;;;5.71;50.40;100782.02;108040;1257;73302;-88
2023/12/08 08:04:58;;;;;;;32.90;16.30;;;;;;;5.80;50.51;100784.73;108010;1256;68929;-89
2023/12/08 08:07:27;;;;;;;;;;;;;;;5.80;50.57;100786.32;108525;1255;72296;-89
2023/12/08 08:10:04;;;;;;;25.80;13.90;;;;;;;5.78;50.35;100784.94;108820;1256;59597;-90
2023/12/08 08:12:33;;;;;;;32.00;16.00;;;;;;;5.72;50.29;100780.79;108901;1257;58828;-90
2023/12/08 08:15:03;;;;;;;;;;;;;;;5.70;50.26;100775.93;109035;1255;73105;-90
2023/12/08 08:17:33;;;;;;;31.70;15.80;;;;;;;5.69;50.18;100775.94;109242;1257;69232;-90
2023/12/08 08:20:00;;;;;;;46.10;18.30;;;;;;;5.77;50.08;100770.12;108923;1255;71447;-90
2023/12/08 08:22:30;;;;;;;36.10;18.30;;;;;;;5.81;50.10;100766.79;108023;1256;59750;-90
2023/12/08 08:25:02;;;;;;;40.00;18.20;;;;;;;5.94;49.75;100765.48;108077;1258;59721;-90
2023/12/08 08:27:33;;;;;;;68.20;24.70;;;;;;;5.73;50.13;100764.59;107989;1256;71454;-90
2023/12/08 08:30:01;;;;;;;45.10;19.70;;;;;;;5.78;50.15;100762.12;107984;1255;69040;-89
2023/12/08 08:32:30;;;;;;;41.00;18.00;;;;;;;5.59;50.11;100759.61;108002;1256;71672;-90
2023/12/08 08:34:58;;;;;;;31.40;15.40;;;;;;;5.58;50.36;100757.20;108021;1256;59485;-90
2023/12/08 08:37:26;;;;;;;29.40;16.20;;;;;;;5.62;50.22;100751.77;108111;1256;60053;-90
2023/12/08 08:39:55;;;;;;;67.20;20.80;;;;;;;5.78;50.10;100751.48;108019;1257;75464;-88
2023/12/08 08:42:25;;;;;;;42.70;17.30;;;;;;;6.06;49.65;100747.10;107879;1257;68317;-88
2023/12/08 08:44:53;;;;;;;29.70;14.70;;;;;;;6.04;49.19;100751.11;107996;1255;71420;-88
2023/12/08 08:47:20;;;;;;;27.50;14.60;;;;;;;5.93;49.25;100749.98;108090;1257;60180;-89
2023/12/08 08:49:49;;;;;;;32.10;14.00;;;;;;;6.09;49.15;100747.60;108118;1255;59619;-90
2023/12/08 08:52:18;;;;;;;31.30;15.40;;;;;;;6.03;49.01;100748.52;108271;1257;73061;-89
2023/12/08 08:54:46;;;;;;;33.70;16.60;;;;;;;6.11;48.87;100743.39;109229;1256;68731;-89
2023/12/08 08:57:14;;;;;;;34.30;17.10;;;;;;;6.36;48.54;100739.49;108838;1256;73518;-90
2023/12/08 08:59:42;;;;;;;41.10;18.20;;;;;;;6.38;48.54;100742.44;108030;1258;59768;-90
2023/12/08 09:05:53;;;;;;;43.90;18.70;;;;;;;6.40;48.51;100748.00;108308;1256;74094;-89
2023/12/08 09:08:21;;;;;;;28.90;15.20;;;;;;;6.54;48.34;100740.52;108115;1255;70219;-88
2023/12/08 09:10:50;;;;;;;29.50;13.90;;;;;;;6.56;48.29;100742.27;108057;1256;72136;-90
2023/12/08 09:13:18;;;;;;;27.60;13.70;;;;;;;6.47;48.06;100740.95;108008;1256;61202;-89
2023/12/08 09:15:48;;;;;;;25.60;12.90;;;;;;;6.37;48.37;100740.02;108065;1256;59535;-89
2023/12/08 09:18:17;;;;;;;24.20;12.20;;;;;;;6.40;48.09;100737.53;108184;1256;75271;-89
2023/12/08 09:20:45;;;;;;;19.30;11.10;;;;;;;6.36;48.34;100738.27;108210;1256;71164;-89
2023/12/08 09:23:14;;;;;;;32.40;16.30;;;;;;;6.28;48.09;100735.56;108126;1256;70638;-90
2023/12/08 09:25:41;;;;;;;26.50;15.60;;;;;;;6.37;48.34;100735.47;108249;1256;61523;-89
2023/12/08 09:28:09;;;;;;;26.60;14.10;;;;;;;6.41;48.30;100727.77;108070;1256;60942;-89
2023/12/08 09:30:36;;;;;;;32.70;15.70;;;;;;;6.51;48.04;100726.42;107923;1255;72072;-89
2023/12/08 09:33:04;;;;;;;23.00;13.00;;;;;;;6.51;48.06;100722.23;108011;1255;71887;-90
2023/12/08 09:35:33;;;;;;;28.00;14.20;;;;;;;6.50;47.95;100719.65;108111;1256;72942;-89
2023/12/08 09:38:01;;;;;;;28.70;14.70;;;;;;;6.43;48.21;100714.84;108100;1256;60904;-89
2023/12/08 09:40:29;;;;;;;24.80;14.00;;;;;;;6.42;48.33;100715.71;108022;1256;59546;-90
2023/12/08 09:43:00;;;;;;;27.80;13.70;;;;;;;6.41;48.35;100720.27;108948;1257;73026;-90
2023/12/08 09:45:28;;;;;;;30.00;15.10;;;;;;;6.51;48.25;100715.80;108942;1256;71400;-90
2023/12/08 09:47:57;;;;;;;32.20;15.50;;;;;;;6.53;48.34;100714.89;108661;1256;71704;-88
2023/12/08 09:50:24;;;;;;;31.90;16.20;;;;;;;6.52;48.25;100714.74;108794;1255;60928;-90
2023/12/08 09:52:55;;;;;;;36.00;16.90;;;;;;;6.74;48.12;100718.67;108878;1259;58727;-88
2023/12/08 09:55:23;;;;;;;34.80;16.50;;;;;;;6.80;48.40;100719.66;108916;1256;71812;-88
2023/12/08 09:57:50;;;;;;;30.80;14.80;;;;;;;6.61;48.47;100717.97;109059;1255;71045;-87
2023/12/08 10:00:21;;;;;;;25.30;13.30;;;;;;;6.65;48.38;100713.90;108962;1256;73649;-89
2023/12/08 10:02:50;;;;;;;41.20;16.30;;;;;;;6.71;48.13;100715.91;108620;1257;61855;-89
2023/12/08 10:05:20;;;;;;;30.60;15.30;;;;;;;6.75;48.10;100719.36;108016;1256;60015;-90
2023/12/08 10:07:52;;;;;;;32.70;17.60;;;;;;;6.74;47.98;100719.90;108032;1255;72705;-90
2023/12/08 10:10:21;;;;;;;32.00;15.50;;;;;;;6.69;48.16;100721.17;107900;1256;72622;-90
2023/12/08 10:12:51;;;;;;;33.40;15.80;;;;;;;6.62;48.14;100715.86;108037;1257;74705;-88
2023/12/08 10:15:28;;;;;;;37.30;15.90;;;;;;;6.57;47.94;100712.77;108464;1256;59729;-89
2023/12/08 10:17:58;;;;;;;32.80;15.60;;;;;;;6.63;47.96;100712.53;108262;1256;60010;-89
2023/12/08 10:20:26;;;;;;;26.80;13.90;;;;;;;6.52;47.74;100711.08;108083;1256;75533;-89
2023/12/08 10:22:56;;;;;;;26.00;13.80;;;;;;;6.46;47.79;100709.39;107964;1256;70288;-90
2023/12/08 10:25:29;;;;;;;26.20;13.20;;;;;;;6.66;47.84;100710.75;107843;1257;73351;-90
2023/12/08 10:27:57;;;;;;;26.50;13.40;;;;;;;6.52;47.62;100712.46;107938;1257;61555;-90
2023/12/08 10:30:26;;;;;;;24.40;13.10;;;;;;;6.56;47.52;100715.58;107964;1257;62324;-90
2023/12/08 10:32:54;;;;;;;28.50;14.30;;;;;;;6.56;47.62;100716.61;107918;1255;71858;-89
2023/12/08 10:35:23;;;;;;;25.70;12.60;;;;;;;6.54;47.62;100719.25;108118;1256;71317;-89
2023/12/08 10:37:51;;;;;;;24.80;12.70;;;;;;;6.41;47.87;100715.02;107991;1256;73558;-89
2023/12/08 10:40:27;;;;;;;25.20;12.90;;;;;;;6.61;47.54;100711.67;108107;1259;62074;-89
2023/12/08 10:42:55;;;;;;;28.00;13.80;;;;;;;6.67;47.44;100711.25;108067;1256;60454;-89
2023/12/08 10:45:22;;;;;;;26.30;14.10;;;;;;;6.73;47.46;100708.40;107999;1256;74578;-91
2023/12/08 10:47:52;;;;;;;30.10;15.40;;;;;;;6.67;47.56;100709.86;107995;1256;70479;-89
2023/12/08 10:50:20;;;;;;;25.30;13.00;;;;;;;6.71;47.75;100716.10;108216;1259;71492;-92
2023/12/08 10:52:51;;;;;;;21.20;12.40;;;;;;;6.69;47.41;100722.21;108074;1256;59598;-89
2023/12/08 10:55:19;;;;;;;28.70;12.80;;;;;;;6.71;47.55;100715.40;107973;1256;60285;-90
2023/12/08 10:57:47;;;;;;;24.90;13.70;;;;;;;6.72;47.36;100716.08;108003;1260;74036;-91
2023/12/08 11:00:19;;;;;;;32.60;15.80;;;;;;;6.80;46.86;100713.71;107944;1255;70187;-90
2023/12/08 11:02:49;;;;;;;34.50;16.40;;;;;;;6.82;47.01;100717.89;107979;1256;71098;-90
2023/12/08 11:05:25;;;;;;;32.70;16.30;;;;;;;6.77;47.21;100714.96;108039;1256;60915;-91
2023/12/08 11:07:57;;;;;;;26.60;14.10;;;;;;;6.81;47.14;100716.51;108047;1256;62641;-89
2023/12/08 11:10:31;;;;;;;33.00;14.10;;;;;;;6.80;47.15;100719.13;107700;1257;73039;-89
2023/12/08 11:13:04;;;;;;;26.10;14.00;;;;;;;6.82;47.20;100718.57;108261;1256;72650;-88
2023/12/08 11:15:36;;;;;;;23.40;12.70;;;;;;;6.76;47.31;100716.37;107954;1257;72544;-90
2023/12/08 11:18:17;;;;;;;27.90;15.20;;;;;;;6.76;47.05;100715.33;107958;1260;60376;-90
2023/12/08 11:20:45;;;;;;;29.00;13.10;;;;;;;6.61;47.18;100713.95;107952;1256;60458;-90
2023/12/08 11:23:18;;;;;;;23.50;12.80;;;;;;;6.55;47.46;100715.95;108010;1256;73111;-90
2023/12/08 11:26:01;;;;;;;28.10;14.20;;;;;;;6.49;47.55;100715.30;107882;1257;68743;-89
2023/12/08 11:28:42;;;;;;;30.20;15.70;;;;;;;6.36;47.69;100716.48;108275;1256;71789;-89